sensor_id;sensor_type;location;lat;lon;timestamp;P1;durP1;ratioP1;P2;durP2;ratioP2
23952;SDS011;12163;49.316;6.092;2023-05-15T00:01:23;15.63;;;11.27;;
23952;SDS011;12163;49.316;6.092;2023-05-15T00:03:50;18.33;;;11.50;;
23952;SDS011;12163;49.316;6.092;2023-05-15T00:06:17;18.83;;;12.07;;
23952;SDS011;12163;49.316;6.092;2023-05-15T00:08:44;16.02;;;11.00;;
23952;SDS011;12163;49.316;6.092;2023-05-15T00:11:10;16.60;;;11.43;;
23952;SDS011;12163;49.316;6.092;2023-05-15T00:13:37;18.58;;;12.20;;
23952;SDS011;12163;49.316;6.092;2023-05-15T00:16:07;19.45;;;12.05;;
23952;SDS011;12163;49.316;6.092;2023-05-15T00:18:34;17.33;;;11.80;;
23952;SDS011;12163;49.316;6.092;2023-05-15T00:21:01;21.35;;;12.55;;
23952;SDS011;12163;49.316;6.092;2023-05-15T00:23:28;17.80;;;13.18;;
23952;SDS011;12163;49.316;6.092;2023-05-15T00:25:54;19.13;;;13.13;;
23952;SDS011;12163;49.316;6.092;2023-05-15T00:28:21;21.80;;;13.43;;
23952;SDS011;12163;49.316;6.092;2023-05-15T00:30:48;19.45;;;14.02;;
23952;SDS011;12163;49.316;6.092;2023-05-15T00:33:14;22.63;;;14.32;;
23952;SDS011;12163;49.316;6.092;2023-05-15T00:35:42;21.73;;;13.93;;
23952;SDS011;12163;49.316;6.092;2023-05-15T00:38:08;21.63;;;14.63;;
23952;SDS011;12163;49.316;6.092;2023-05-15T00:40:35;21.20;;;14.85;;
23952;SDS011;12163;49.316;6.092;2023-05-15T00:43:04;21.13;;;15.10;;
23952;SDS011;12163;49.316;6.092;2023-05-15T00:45:31;21.15;;;14.80;;
23952;SDS011;12163;49.316;6.092;2023-05-15T00:47:58;23.80;;;15.65;;
23952;SDS011;12163;49.316;6.092;2023-05-15T00:50:26;21.17;;;14.57;;
23952;SDS011;12163;49.316;6.092;2023-05-15T00:52:53;23.80;;;15.88;;
23952;SDS011;12163;49.316;6.092;2023-05-15T00:55:21;20.13;;;15.07;;
23952;SDS011;12163;49.316;6.092;2023-05-15T00:57:48;23.30;;;15.93;;
23952;SDS011;12163;49.316;6.092;2023-05-15T01:00:16;23.48;;;16.15;;
23952;SDS011;12163;49.316;6.092;2023-05-15T01:02:43;25.48;;;15.43;;
23952;SDS011;12163;49.316;6.092;2023-05-15T01:05:11;21.85;;;16.13;;
23952;SDS011;12163;49.316;6.092;2023-05-15T01:07:44;23.85;;;16.67;;
23952;SDS011;12163;49.316;6.092;2023-05-15T01:10:17;23.02;;;16.45;;
23952;SDS011;12163;49.316;6.092;2023-05-15T01:12:46;25.55;;;17.25;;
23952;SDS011;12163;49.316;6.092;2023-05-15T01:15:16;24.58;;;16.90;;
23952;SDS011;12163;49.316;6.092;2023-05-15T01:17:42;24.63;;;16.67;;
23952;SDS011;12163;49.316;6.092;2023-05-15T01:20:10;26.65;;;16.88;;
23952;SDS011;12163;49.316;6.092;2023-05-15T01:22:45;25.75;;;17.10;;
23952;SDS011;12163;49.316;6.092;2023-05-15T01:28:39;25.55;;;17.15;;
23952;SDS011;12163;49.316;6.092;2023-05-15T01:34:02;22.70;;;16.55;;
23952;SDS011;12163;49.316;6.092;2023-05-15T01:36:34;23.40;;;17.55;;
23952;SDS011;12163;49.316;6.092;2023-05-15T01:39:04;20.92;;;15.18;;
23952;SDS011;12163;49.316;6.092;2023-05-15T01:44:15;25.83;;;15.73;;
23952;SDS011;12163;49.316;6.092;2023-05-15T01:46:48;22.77;;;16.38;;
23952;SDS011;12163;49.316;6.092;2023-05-15T01:49:17;23.40;;;17.05;;
23952;SDS011;12163;49.316;6.092;2023-05-15T01:51:49;23.45;;;16.75;;
23952;SDS011;12163;49.316;6.092;2023-05-15T01:54:20;22.95;;;17.08;;
23952;SDS011;12163;49.316;6.092;2023-05-15T01:56:48;21.58;;;16.40;;
23952;SDS011;12163;49.316;6.092;2023-05-15T01:59:14;24.50;;;19.83;;
23952;SDS011;12163;49.316;6.092;2023-05-15T02:01:57;25.90;;;17.15;;
23952;SDS011;12163;49.316;6.092;2023-05-15T02:04:24;31.10;;;19.30;;
23952;SDS011;12163;49.316;6.092;2023-05-15T02:06:51;25.45;;;19.42;;
23952;SDS011;12163;49.316;6.092;2023-05-15T02:09:19;25.80;;;18.95;;
23952;SDS011;12163;49.316;6.092;2023-05-15T02:11:46;25.75;;;19.67;;
23952;SDS011;12163;49.316;6.092;2023-05-15T02:14:13;25.42;;;19.88;;
23952;SDS011;12163;49.316;6.092;2023-05-15T02:16:40;29.33;;;20.42;;
23952;SDS011;12163;49.316;6.092;2023-05-15T02:19:06;25.20;;;19.00;;
23952;SDS011;12163;49.316;6.092;2023-05-15T02:21:33;26.02;;;19.75;;
23952;SDS011;12163;49.316;6.092;2023-05-15T02:24:00;28.88;;;20.38;;
23952;SDS011;12163;49.316;6.092;2023-05-15T02:26:39;30.02;;;21.08;;
23952;SDS011;12163;49.316;6.092;2023-05-15T02:29:17;35.40;;;22.15;;
23952;SDS011;12163;49.316;6.092;2023-05-15T02:32:05;26.05;;;20.77;;
23952;SDS011;12163;49.316;6.092;2023-05-15T02:37:20;33.30;;;21.15;;
23952;SDS011;12163;49.316;6.092;2023-05-15T02:39:49;36.90;;;23.13;;
23952;SDS011;12163;49.316;6.092;2023-05-15T02:42:19;38.65;;;22.38;;
23952;SDS011;12163;49.316;6.092;2023-05-15T02:44:46;33.60;;;23.10;;
23952;SDS011;12163;49.316;6.092;2023-05-15T02:47:13;31.33;;;22.58;;
23952;SDS011;12163;49.316;6.092;2023-05-15T02:49:40;32.38;;;22.15;;
23952;SDS011;12163;49.316;6.092;2023-05-15T02:52:06;34.08;;;23.05;;
23952;SDS011;12163;49.316;6.092;2023-05-15T02:54:33;29.00;;;22.27;;
23952;SDS011;12163;49.316;6.092;2023-05-15T02:56:59;36.20;;;23.17;;
23952;SDS011;12163;49.316;6.092;2023-05-15T02:59:26;31.75;;;21.98;;
23952;SDS011;12163;49.316;6.092;2023-05-15T03:01:52;32.70;;;21.88;;
23952;SDS011;12163;49.316;6.092;2023-05-15T03:04:19;34.50;;;23.00;;
23952;SDS011;12163;49.316;6.092;2023-05-15T03:06:46;34.10;;;23.30;;
23952;SDS011;12163;49.316;6.092;2023-05-15T03:09:12;32.55;;;23.17;;
23952;SDS011;12163;49.316;6.092;2023-05-15T03:11:38;28.70;;;21.63;;
23952;SDS011;12163;49.316;6.092;2023-05-15T03:14:05;31.65;;;22.55;;
23952;SDS011;12163;49.316;6.092;2023-05-15T03:16:32;31.48;;;23.42;;
23952;SDS011;12163;49.316;6.092;2023-05-15T03:18:58;37.13;;;23.80;;
23952;SDS011;12163;49.316;6.092;2023-05-15T03:21:25;32.60;;;23.85;;
23952;SDS011;12163;49.316;6.092;2023-05-15T03:23:51;36.55;;;24.13;;
23952;SDS011;12163;49.316;6.092;2023-05-15T03:26:18;33.25;;;23.10;;
23952;SDS011;12163;49.316;6.092;2023-05-15T03:28:44;33.38;;;24.75;;
23952;SDS011;12163;49.316;6.092;2023-05-15T03:31:11;34.28;;;24.95;;
23952;SDS011;12163;49.316;6.092;2023-05-15T03:33:39;36.78;;;26.85;;
23952;SDS011;12163;49.316;6.092;2023-05-15T03:36:06;35.28;;;25.83;;
23952;SDS011;12163;49.316;6.092;2023-05-15T03:38:33;33.17;;;26.67;;
23952;SDS011;12163;49.316;6.092;2023-05-15T03:40:59;39.88;;;27.02;;
23952;SDS011;12163;49.316;6.092;2023-05-15T03:43:25;44.70;;;27.70;;
23952;SDS011;12163;49.316;6.092;2023-05-15T03:45:52;41.50;;;27.33;;
23952;SDS011;12163;49.316;6.092;2023-05-15T03:48:18;37.05;;;26.38;;
23952;SDS011;12163;49.316;6.092;2023-05-15T03:50:45;42.97;;;26.67;;
23952;SDS011;12163;49.316;6.092;2023-05-15T03:53:11;36.05;;;26.52;;
23952;SDS011;12163;49.316;6.092;2023-05-15T03:55:38;40.05;;;28.08;;
23952;SDS011;12163;49.316;6.092;2023-05-15T03:58:04;41.45;;;28.50;;
23952;SDS011;12163;49.316;6.092;2023-05-15T04:00:31;39.45;;;27.48;;
23952;SDS011;12163;49.316;6.092;2023-05-15T04:02:57;36.60;;;27.92;;
23952;SDS011;12163;49.316;6.092;2023-05-15T04:05:24;44.10;;;27.35;;
23952;SDS011;12163;49.316;6.092;2023-05-15T04:07:51;40.78;;;29.05;;
23952;SDS011;12163;49.316;6.092;2023-05-15T04:10:17;36.90;;;27.83;;
23952;SDS011;12163;49.316;6.092;2023-05-15T04:12:44;40.22;;;27.70;;
23952;SDS011;12163;49.316;6.092;2023-05-15T04:15:14;36.35;;;27.05;;
23952;SDS011;12163;49.316;6.092;2023-05-15T04:17:41;39.60;;;29.40;;
23952;SDS011;12163;49.316;6.092;2023-05-15T04:20:08;44.58;;;29.73;;
23952;SDS011;12163;49.316;6.092;2023-05-15T04:22:36;40.45;;;27.75;;
23952;SDS011;12163;49.316;6.092;2023-05-15T04:25:03;45.90;;;30.95;;
23952;SDS011;12163;49.316;6.092;2023-05-15T04:27:29;44.65;;;31.20;;
23952;SDS011;12163;49.316;6.092;2023-05-15T04:29:56;43.85;;;31.52;;
23952;SDS011;12163;49.316;6.092;2023-05-15T04:32:22;46.92;;;31.30;;
23952;SDS011;12163;49.316;6.092;2023-05-15T04:34:49;45.90;;;31.48;;
23952;SDS011;12163;49.316;6.092;2023-05-15T04:37:15;38.42;;;29.55;;
23952;SDS011;12163;49.316;6.092;2023-05-15T04:39:42;44.63;;;31.95;;
23952;SDS011;12163;49.316;6.092;2023-05-15T04:42:08;41.38;;;29.58;;
23952;SDS011;12163;49.316;6.092;2023-05-15T04:44:35;40.20;;;29.52;;
23952;SDS011;12163;49.316;6.092;2023-05-15T04:47:01;60.22;;;30.83;;
23952;SDS011;12163;49.316;6.092;2023-05-15T04:49:28;41.40;;;31.23;;
23952;SDS011;12163;49.316;6.092;2023-05-15T04:51:54;44.08;;;32.10;;
23952;SDS011;12163;49.316;6.092;2023-05-15T04:54:20;23.10;;;18.10;;
23952;SDS011;12163;49.316;6.092;2023-05-15T04:56:47;47.17;;;29.27;;
23952;SDS011;12163;49.316;6.092;2023-05-15T04:59:13;33.20;;;26.73;;
23952;SDS011;12163;49.316;6.092;2023-05-15T05:01:41;44.78;;;30.17;;
23952;SDS011;12163;49.316;6.092;2023-05-15T05:04:08;44.80;;;30.67;;
23952;SDS011;12163;49.316;6.092;2023-05-15T05:06:35;42.63;;;29.48;;
23952;SDS011;12163;49.316;6.092;2023-05-15T05:09:01;40.22;;;31.77;;
23952;SDS011;12163;49.316;6.092;2023-05-15T05:11:28;39.97;;;31.55;;
23952;SDS011;12163;49.316;6.092;2023-05-15T05:13:54;43.53;;;29.55;;
23952;SDS011;12163;49.316;6.092;2023-05-15T05:16:21;39.67;;;27.02;;
23952;SDS011;12163;49.316;6.092;2023-05-15T05:18:47;37.78;;;27.33;;
23952;SDS011;12163;49.316;6.092;2023-05-15T05:21:14;46.15;;;28.40;;
23952;SDS011;12163;49.316;6.092;2023-05-15T05:23:40;44.38;;;29.17;;
23952;SDS011;12163;49.316;6.092;2023-05-15T05:26:07;43.13;;;30.90;;
23952;SDS011;12163;49.316;6.092;2023-05-15T05:28:33;43.60;;;31.52;;
23952;SDS011;12163;49.316;6.092;2023-05-15T05:31:00;45.78;;;30.27;;
23952;SDS011;12163;49.316;6.092;2023-05-15T05:33:28;38.60;;;29.23;;
23952;SDS011;12163;49.316;6.092;2023-05-15T05:35:54;47.70;;;31.25;;
23952;SDS011;12163;49.316;6.092;2023-05-15T05:38:21;45.72;;;31.98;;
23952;SDS011;12163;49.316;6.092;2023-05-15T05:40:47;42.08;;;30.05;;
23952;SDS011;12163;49.316;6.092;2023-05-15T05:43:13;46.08;;;31.63;;
23952;SDS011;12163;49.316;6.092;2023-05-15T05:45:40;48.53;;;30.38;;
23952;SDS011;12163;49.316;6.092;2023-05-15T05:48:06;47.10;;;30.48;;
23952;SDS011;12163;49.316;6.092;2023-05-15T05:50:33;45.17;;;30.55;;
23952;SDS011;12163;49.316;6.092;2023-05-15T05:53:00;44.20;;;31.30;;
23952;SDS011;12163;49.316;6.092;2023-05-15T05:55:26;41.97;;;28.88;;
23952;SDS011;12163;49.316;6.092;2023-05-15T05:57:53;39.67;;;27.35;;
23952;SDS011;12163;49.316;6.092;2023-05-15T06:00:19;37.17;;;29.08;;
23952;SDS011;12163;49.316;6.092;2023-05-15T06:02:46;46.03;;;31.52;;
23952;SDS011;12163;49.316;6.092;2023-05-15T06:05:13;42.95;;;29.65;;
23952;SDS011;12163;49.316;6.092;2023-05-15T06:07:39;40.17;;;27.75;;
23952;SDS011;12163;49.316;6.092;2023-05-15T06:10:06;46.90;;;29.38;;
23952;SDS011;12163;49.316;6.092;2023-05-15T06:12:34;40.35;;;26.77;;
23952;SDS011;12163;49.316;6.092;2023-05-15T06:15:01;45.15;;;29.55;;
23952;SDS011;12163;49.316;6.092;2023-05-15T06:17:27;39.33;;;28.10;;
23952;SDS011;12163;49.316;6.092;2023-05-15T06:19:54;44.05;;;28.65;;
23952;SDS011;12163;49.316;6.092;2023-05-15T06:22:20;41.33;;;29.35;;
23952;SDS011;12163;49.316;6.092;2023-05-15T06:24:47;41.65;;;28.40;;
23952;SDS011;12163;49.316;6.092;2023-05-15T06:27:13;40.72;;;27.00;;
23952;SDS011;12163;49.316;6.092;2023-05-15T06:29:40;39.33;;;27.45;;
23952;SDS011;12163;49.316;6.092;2023-05-15T06:32:06;36.67;;;24.25;;
23952;SDS011;12163;49.316;6.092;2023-05-15T06:34:33;42.25;;;23.92;;
23952;SDS011;12163;49.316;6.092;2023-05-15T06:37:00;37.00;;;22.40;;
23952;SDS011;12163;49.316;6.092;2023-05-15T06:39:26;31.63;;;21.58;;
23952;SDS011;12163;49.316;6.092;2023-05-15T06:41:53;33.92;;;20.52;;
23952;SDS011;12163;49.316;6.092;2023-05-15T06:44:23;31.95;;;21.35;;
23952;SDS011;12163;49.316;6.092;2023-05-15T06:46:50;38.05;;;24.55;;
23952;SDS011;12163;49.316;6.092;2023-05-15T06:49:17;35.38;;;24.25;;
23952;SDS011;12163;49.316;6.092;2023-05-15T06:51:43;38.22;;;23.58;;
23952;SDS011;12163;49.316;6.092;2023-05-15T06:54:10;35.35;;;22.83;;
23952;SDS011;12163;49.316;6.092;2023-05-15T06:56:36;31.95;;;20.20;;
23952;SDS011;12163;49.316;6.092;2023-05-15T06:59:03;35.05;;;20.33;;
23952;SDS011;12163;49.316;6.092;2023-05-15T07:01:30;31.17;;;17.70;;
23952;SDS011;12163;49.316;6.092;2023-05-15T07:03:56;49.55;;;22.50;;
23952;SDS011;12163;49.316;6.092;2023-05-15T07:06:23;37.08;;;21.58;;
23952;SDS011;12163;49.316;6.092;2023-05-15T07:08:51;34.17;;;20.92;;
23952;SDS011;12163;49.316;6.092;2023-05-15T07:11:17;27.08;;;17.65;;
23952;SDS011;12163;49.316;6.092;2023-05-15T07:13:44;30.95;;;20.77;;
23952;SDS011;12163;49.316;6.092;2023-05-15T07:16:10;29.25;;;18.25;;
23952;SDS011;12163;49.316;6.092;2023-05-15T07:18:37;32.40;;;19.13;;
23952;SDS011;12163;49.316;6.092;2023-05-15T07:21:03;28.48;;;20.25;;
23952;SDS011;12163;49.316;6.092;2023-05-15T07:23:30;26.25;;;18.38;;
23952;SDS011;12163;49.316;6.092;2023-05-15T07:25:56;28.48;;;17.98;;
23952;SDS011;12163;49.316;6.092;2023-05-15T07:28:23;32.78;;;19.50;;
23952;SDS011;12163;49.316;6.092;2023-05-15T07:30:49;28.13;;;19.65;;
23952;SDS011;12163;49.316;6.092;2023-05-15T07:33:17;29.48;;;19.70;;
23952;SDS011;12163;49.316;6.092;2023-05-15T07:35:43;26.10;;;17.25;;
23952;SDS011;12163;49.316;6.092;2023-05-15T07:38:10;24.25;;;17.98;;
23952;SDS011;12163;49.316;6.092;2023-05-15T07:40:36;30.63;;;20.38;;
23952;SDS011;12163;49.316;6.092;2023-05-15T07:43:03;28.92;;;17.52;;
23952;SDS011;12163;49.316;6.092;2023-05-15T07:45:30;28.25;;;17.70;;
23952;SDS011;12163;49.316;6.092;2023-05-15T07:47:56;35.63;;;21.15;;
23952;SDS011;12163;49.316;6.092;2023-05-15T07:50:24;47.20;;;20.05;;
23952;SDS011;12163;49.316;6.092;2023-05-15T07:52:50;21.10;;;14.48;;
23952;SDS011;12163;49.316;6.092;2023-05-15T07:55:17;36.30;;;19.60;;
23952;SDS011;12163;49.316;6.092;2023-05-15T07:57:43;35.85;;;18.25;;
23952;SDS011;12163;49.316;6.092;2023-05-15T08:00:10;28.10;;;18.48;;
23952;SDS011;12163;49.316;6.092;2023-05-15T08:02:39;30.92;;;18.65;;
23952;SDS011;12163;49.316;6.092;2023-05-15T08:05:06;25.88;;;17.25;;
23952;SDS011;12163;49.316;6.092;2023-05-15T08:07:33;24.58;;;17.38;;
23952;SDS011;12163;49.316;6.092;2023-05-15T08:10:00;25.85;;;16.95;;
23952;SDS011;12163;49.316;6.092;2023-05-15T08:12:26;23.88;;;16.08;;
23952;SDS011;12163;49.316;6.092;2023-05-15T08:14:53;33.72;;;17.85;;
23952;SDS011;12163;49.316;6.092;2023-05-15T08:17:20;28.35;;;16.88;;
23952;SDS011;12163;49.316;6.092;2023-05-15T08:19:47;29.83;;;16.88;;
23952;SDS011;12163;49.316;6.092;2023-05-15T08:22:14;23.25;;;17.13;;
23952;SDS011;12163;49.316;6.092;2023-05-15T08:24:40;31.17;;;16.63;;
23952;SDS011;12163;49.316;6.092;2023-05-15T08:27:07;24.33;;;16.98;;
23952;SDS011;12163;49.316;6.092;2023-05-15T08:29:34;22.40;;;14.93;;
23952;SDS011;12163;49.316;6.092;2023-05-15T08:32:04;25.70;;;15.32;;
23952;SDS011;12163;49.316;6.092;2023-05-15T08:34:31;25.65;;;15.02;;
23952;SDS011;12163;49.316;6.092;2023-05-15T08:36:57;25.17;;;14.88;;
23952;SDS011;12163;49.316;6.092;2023-05-15T08:39:24;25.70;;;14.20;;
23952;SDS011;12163;49.316;6.092;2023-05-15T08:41:59;20.83;;;14.13;;
23952;SDS011;12163;49.316;6.092;2023-05-15T08:44:27;26.10;;;15.07;;
23952;SDS011;12163;49.316;6.092;2023-05-15T08:46:54;28.00;;;15.10;;
23952;SDS011;12163;49.316;6.092;2023-05-15T08:51:53;26.35;;;14.95;;
23952;SDS011;12163;49.316;6.092;2023-05-15T08:54:20;24.63;;;16.60;;
23952;SDS011;12163;49.316;6.092;2023-05-15T08:56:47;28.45;;;15.13;;
23952;SDS011;12163;49.316;6.092;2023-05-15T08:59:14;23.60;;;14.90;;
23952;SDS011;12163;49.316;6.092;2023-05-15T09:01:40;21.73;;;15.68;;
23952;SDS011;12163;49.316;6.092;2023-05-15T09:04:07;28.63;;;14.27;;
23952;SDS011;12163;49.316;6.092;2023-05-15T09:06:34;31.20;;;14.35;;
23952;SDS011;12163;49.316;6.092;2023-05-15T09:09:01;22.83;;;13.70;;
23952;SDS011;12163;49.316;6.092;2023-05-15T09:11:30;21.40;;;14.25;;
23952;SDS011;12163;49.316;6.092;2023-05-15T09:13:57;24.23;;;15.98;;
23952;SDS011;12163;49.316;6.092;2023-05-15T09:16:24;27.13;;;15.52;;
23952;SDS011;12163;49.316;6.092;2023-05-15T09:18:51;26.52;;;15.25;;
23952;SDS011;12163;49.316;6.092;2023-05-15T09:21:22;22.85;;;14.32;;
23952;SDS011;12163;49.316;6.092;2023-05-15T09:23:49;26.13;;;15.00;;
23952;SDS011;12163;49.316;6.092;2023-05-15T09:26:16;20.33;;;13.80;;
23952;SDS011;12163;49.316;6.092;2023-05-15T09:28:42;25.42;;;13.00;;
23952;SDS011;12163;49.316;6.092;2023-05-15T09:31:09;29.83;;;14.75;;
23952;SDS011;12163;49.316;6.092;2023-05-15T09:33:37;26.90;;;12.45;;
23952;SDS011;12163;49.316;6.092;2023-05-15T09:36:04;21.38;;;13.50;;
23952;SDS011;12163;49.316;6.092;2023-05-15T09:38:32;19.08;;;11.65;;
23952;SDS011;12163;49.316;6.092;2023-05-15T09:41:02;24.90;;;11.25;;
23952;SDS011;12163;49.316;6.092;2023-05-15T09:43:28;18.63;;;11.23;;
23952;SDS011;12163;49.316;6.092;2023-05-15T09:45:58;22.75;;;12.90;;
23952;SDS011;12163;49.316;6.092;2023-05-15T09:48:24;19.20;;;13.32;;
23952;SDS011;12163;49.316;6.092;2023-05-15T09:50:51;20.88;;;13.82;;
23952;SDS011;12163;49.316;6.092;2023-05-15T09:53:18;26.95;;;11.68;;
23952;SDS011;12163;49.316;6.092;2023-05-15T09:55:47;21.50;;;12.13;;
23952;SDS011;12163;49.316;6.092;2023-05-15T09:58:15;25.10;;;13.63;;
23952;SDS011;12163;49.316;6.092;2023-05-15T10:00:42;26.35;;;13.32;;
23952;SDS011;12163;49.316;6.092;2023-05-15T10:03:15;24.17;;;14.57;;
23952;SDS011;12163;49.316;6.092;2023-05-15T10:05:42;24.80;;;14.57;;
23952;SDS011;12163;49.316;6.092;2023-05-15T10:08:09;30.08;;;17.20;;
23952;SDS011;12163;49.316;6.092;2023-05-15T10:10:36;25.35;;;16.08;;
23952;SDS011;12163;49.316;6.092;2023-05-15T10:13:03;22.63;;;16.15;;
23952;SDS011;12163;49.316;6.092;2023-05-15T10:15:30;23.95;;;16.23;;
23952;SDS011;12163;49.316;6.092;2023-05-15T10:17:57;29.13;;;16.35;;
23952;SDS011;12163;49.316;6.092;2023-05-15T10:20:25;24.02;;;15.45;;
23952;SDS011;12163;49.316;6.092;2023-05-15T10:22:53;26.45;;;16.70;;
23952;SDS011;12163;49.316;6.092;2023-05-15T10:25:36;27.05;;;17.60;;
23952;SDS011;12163;49.316;6.092;2023-05-15T10:28:03;29.35;;;18.27;;
23952;SDS011;12163;49.316;6.092;2023-05-15T10:30:32;30.10;;;17.75;;
23952;SDS011;12163;49.316;6.092;2023-05-15T10:32:58;32.83;;;16.80;;
23952;SDS011;12163;49.316;6.092;2023-05-15T10:35:26;27.25;;;17.15;;
23952;SDS011;12163;49.316;6.092;2023-05-15T10:37:53;25.52;;;17.27;;
23952;SDS011;12163;49.316;6.092;2023-05-15T10:40:19;25.88;;;16.15;;
23952;SDS011;12163;49.316;6.092;2023-05-15T10:42:46;26.80;;;16.15;;
23952;SDS011;12163;49.316;6.092;2023-05-15T10:45:13;31.48;;;16.77;;
23952;SDS011;12163;49.316;6.092;2023-05-15T10:47:39;24.63;;;16.50;;
23952;SDS011;12163;49.316;6.092;2023-05-15T10:50:07;26.80;;;16.27;;
23952;SDS011;12163;49.316;6.092;2023-05-15T10:52:35;21.63;;;14.55;;
23952;SDS011;12163;49.316;6.092;2023-05-15T10:55:02;20.05;;;14.30;;
23952;SDS011;12163;49.316;6.092;2023-05-15T10:57:31;21.52;;;13.50;;
23952;SDS011;12163;49.316;6.092;2023-05-15T10:59:57;24.70;;;14.25;;
23952;SDS011;12163;49.316;6.092;2023-05-15T11:02:25;21.67;;;13.00;;
23952;SDS011;12163;49.316;6.092;2023-05-15T11:04:55;21.55;;;13.35;;
23952;SDS011;12163;49.316;6.092;2023-05-15T11:07:22;20.13;;;11.23;;
23952;SDS011;12163;49.316;6.092;2023-05-15T11:09:49;19.17;;;11.75;;
23952;SDS011;12163;49.316;6.092;2023-05-15T11:12:15;17.40;;;10.55;;
23952;SDS011;12163;49.316;6.092;2023-05-15T11:14:43;18.73;;;11.15;;
23952;SDS011;12163;49.316;6.092;2023-05-15T11:17:10;19.08;;;10.27;;
23952;SDS011;12163;49.316;6.092;2023-05-15T11:19:38;15.00;;;9.10;;
23952;SDS011;12163;49.316;6.092;2023-05-15T11:27:15;14.77;;;8.52;;
23952;SDS011;12163;49.316;6.092;2023-05-15T11:33:10;15.50;;;8.23;;
23952;SDS011;12163;49.316;6.092;2023-05-15T11:37:52;12.27;;;5.65;;
23952;SDS011;12163;49.316;6.092;2023-05-15T11:40:20;16.52;;;5.57;;
23952;SDS011;12163;49.316;6.092;2023-05-15T11:45:32;9.07;;;4.60;;
23952;SDS011;12163;49.316;6.092;2023-05-15T11:48:02;8.90;;;5.28;;
23952;SDS011;12163;49.316;6.092;2023-05-15T11:50:29;15.75;;;4.78;;
23952;SDS011;12163;49.316;6.092;2023-05-15T11:52:56;9.57;;;4.70;;
23952;SDS011;12163;49.316;6.092;2023-05-15T11:55:22;16.90;;;4.70;;
23952;SDS011;12163;49.316;6.092;2023-05-15T11:57:50;11.30;;;4.47;;
23952;SDS011;12163;49.316;6.092;2023-05-15T12:00:17;15.63;;;4.30;;
23952;SDS011;12163;49.316;6.092;2023-05-15T12:02:43;14.00;;;4.43;;
23952;SDS011;12163;49.316;6.092;2023-05-15T12:05:10;8.57;;;4.10;;
23952;SDS011;12163;49.316;6.092;2023-05-15T12:07:37;6.88;;;3.63;;
23952;SDS011;12163;49.316;6.092;2023-05-15T12:10:04;8.27;;;4.00;;
23952;SDS011;12163;49.316;6.092;2023-05-15T12:12:30;9.43;;;3.92;;
23952;SDS011;12163;49.316;6.092;2023-05-15T12:14:57;11.63;;;4.05;;
23952;SDS011;12163;49.316;6.092;2023-05-15T12:17:26;7.15;;;3.97;;
23952;SDS011;12163;49.316;6.092;2023-05-15T12:19:53;10.57;;;4.22;;
23952;SDS011;12163;49.316;6.092;2023-05-15T12:22:20;7.22;;;4.07;;
23952;SDS011;12163;49.316;6.092;2023-05-15T12:24:47;12.25;;;4.05;;
23952;SDS011;12163;49.316;6.092;2023-05-15T12:27:13;7.40;;;3.85;;
23952;SDS011;12163;49.316;6.092;2023-05-15T12:29:41;7.60;;;3.78;;
23952;SDS011;12163;49.316;6.092;2023-05-15T12:32:08;10.25;;;4.10;;
23952;SDS011;12163;49.316;6.092;2023-05-15T12:34:34;9.20;;;4.80;;
23952;SDS011;12163;49.316;6.092;2023-05-15T12:37:01;13.38;;;4.93;;
23952;SDS011;12163;49.316;6.092;2023-05-15T12:39:27;7.32;;;4.53;;
23952;SDS011;12163;49.316;6.092;2023-05-15T12:41:56;8.25;;;4.00;;
23952;SDS011;12163;49.316;6.092;2023-05-15T12:44:23;10.90;;;4.85;;
23952;SDS011;12163;49.316;6.092;2023-05-15T12:46:52;6.85;;;4.18;;
23952;SDS011;12163;49.316;6.092;2023-05-15T12:49:21;11.02;;;3.97;;
23952;SDS011;12163;49.316;6.092;2023-05-15T12:51:48;5.85;;;3.50;;
23952;SDS011;12163;49.316;6.092;2023-05-15T12:54:16;12.40;;;2.95;;
23952;SDS011;12163;49.316;6.092;2023-05-15T12:56:43;9.18;;;2.92;;
23952;SDS011;12163;49.316;6.092;2023-05-15T12:59:09;5.40;;;3.28;;
23952;SDS011;12163;49.316;6.092;2023-05-15T13:01:36;11.60;;;4.05;;
23952;SDS011;12163;49.316;6.092;2023-05-15T13:04:03;8.35;;;3.58;;
23952;SDS011;12163;49.316;6.092;2023-05-15T13:06:29;12.93;;;3.80;;
23952;SDS011;12163;49.316;6.092;2023-05-15T13:09:11;9.65;;;3.30;;
23952;SDS011;12163;49.316;6.092;2023-05-15T13:11:41;11.55;;;3.05;;
23952;SDS011;12163;49.316;6.092;2023-05-15T13:14:08;7.65;;;2.75;;
23952;SDS011;12163;49.316;6.092;2023-05-15T13:16:43;7.35;;;3.03;;
23952;SDS011;12163;49.316;6.092;2023-05-15T13:19:10;6.13;;;3.03;;
23952;SDS011;12163;49.316;6.092;2023-05-15T13:21:36;7.65;;;3.58;;
23952;SDS011;12163;49.316;6.092;2023-05-15T13:24:03;6.13;;;3.60;;
23952;SDS011;12163;49.316;6.092;2023-05-15T13:26:30;5.65;;;3.38;;
23952;SDS011;12163;49.316;6.092;2023-05-15T13:28:56;5.13;;;3.40;;
23952;SDS011;12163;49.316;6.092;2023-05-15T13:31:22;6.75;;;3.40;;
23952;SDS011;12163;49.316;6.092;2023-05-15T13:33:50;6.22;;;3.28;;
23952;SDS011;12163;49.316;6.092;2023-05-15T13:36:16;5.68;;;2.75;;
23952;SDS011;12163;49.316;6.092;2023-05-15T13:38:43;5.45;;;3.00;;
23952;SDS011;12163;49.316;6.092;2023-05-15T13:41:09;6.63;;;3.00;;
23952;SDS011;12163;49.316;6.092;2023-05-15T13:43:35;5.90;;;3.10;;
23952;SDS011;12163;49.316;6.092;2023-05-15T13:46:02;7.63;;;3.17;;
23952;SDS011;12163;49.316;6.092;2023-05-15T13:48:30;5.53;;;3.17;;
23952;SDS011;12163;49.316;6.092;2023-05-15T13:50:57;5.72;;;3.58;;
23952;SDS011;12163;49.316;6.092;2023-05-15T13:53:23;10.68;;;3.35;;
23952;SDS011;12163;49.316;6.092;2023-05-15T13:55:49;8.73;;;3.72;;
23952;SDS011;12163;49.316;6.092;2023-05-15T13:58:16;5.97;;;3.15;;
23952;SDS011;12163;49.316;6.092;2023-05-15T14:00:42;12.23;;;3.95;;
23952;SDS011;12163;49.316;6.092;2023-05-15T14:03:09;4.80;;;3.05;;
23952;SDS011;12163;49.316;6.092;2023-05-15T14:05:39;8.30;;;3.83;;
23952;SDS011;12163;49.316;6.092;2023-05-15T14:08:06;11.07;;;3.33;;
23952;SDS011;12163;49.316;6.092;2023-05-15T14:10:33;4.50;;;3.00;;
23952;SDS011;12163;49.316;6.092;2023-05-15T14:13:00;5.88;;;3.30;;
23952;SDS011;12163;49.316;6.092;2023-05-15T14:15:27;8.60;;;4.10;;
23952;SDS011;12163;49.316;6.092;2023-05-15T14:17:53;10.98;;;4.25;;
23952;SDS011;12163;49.316;6.092;2023-05-15T14:20:20;8.65;;;3.90;;
23952;SDS011;12163;49.316;6.092;2023-05-15T14:22:46;6.30;;;3.60;;
23952;SDS011;12163;49.316;6.092;2023-05-15T14:25:13;7.30;;;3.67;;
23952;SDS011;12163;49.316;6.092;2023-05-15T14:27:39;8.00;;;4.00;;
23952;SDS011;12163;49.316;6.092;2023-05-15T14:30:06;13.05;;;3.58;;
23952;SDS011;12163;49.316;6.092;2023-05-15T14:32:32;7.03;;;3.67;;
23952;SDS011;12163;49.316;6.092;2023-05-15T14:34:59;8.30;;;4.07;;
23952;SDS011;12163;49.316;6.092;2023-05-15T14:37:25;6.88;;;3.30;;
23952;SDS011;12163;49.316;6.092;2023-05-15T14:39:53;11.55;;;3.67;;
23952;SDS011;12163;49.316;6.092;2023-05-15T14:42:19;6.40;;;3.60;;
23952;SDS011;12163;49.316;6.092;2023-05-15T14:44:46;8.00;;;3.30;;
23952;SDS011;12163;49.316;6.092;2023-05-15T14:47:13;10.25;;;3.88;;
23952;SDS011;12163;49.316;6.092;2023-05-15T14:49:40;8.48;;;3.42;;
23952;SDS011;12163;49.316;6.092;2023-05-15T14:52:07;11.50;;;3.30;;
23952;SDS011;12163;49.316;6.092;2023-05-15T14:54:34;8.95;;;3.60;;